sensor_id;sensor_type;location;lat;lon;timestamp;P1;durP1;ratioP1;P2;durP2;ratioP2
28266;SDS011;15525;45.568;5.448;2022-08-21T00:02:25;1.50;;;1.40;;
28266;SDS011;15525;45.568;5.448;2022-08-21T00:04:51;2.05;;;1.50;;
28266;SDS011;15525;45.568;5.448;2022-08-21T00:07:17;1.83;;;1.60;;
28266;SDS011;15525;45.568;5.448;2022-08-21T00:09:44;4.07;;;1.75;;
28266;SDS011;15525;45.568;5.448;2022-08-21T00:12:09;2.63;;;1.40;;
28266;SDS011;15525;45.568;5.448;2022-08-21T00:14:35;1.83;;;1.40;;
28266;SDS011;15525;45.568;5.448;2022-08-21T00:17:02;1.50;;;1.40;;
28266;SDS011;15525;45.568;5.448;2022-08-21T00:19:29;1.92;;;1.55;;
28266;SDS011;15525;45.568;5.448;2022-08-21T00:21:54;3.95;;;1.48;;
28266;SDS011;15525;45.568;5.448;2022-08-21T00:24:20;1.95;;;1.52;;
28266;SDS011;15525;45.568;5.448;2022-08-21T00:26:47;2.75;;;1.60;;
28266;SDS011;15525;45.568;5.448;2022-08-21T00:29:13;3.65;;;1.80;;
28266;SDS011;15525;45.568;5.448;2022-08-21T00:31:39;3.00;;;1.70;;
28266;SDS011;15525;45.568;5.448;2022-08-21T00:34:05;5.90;;;1.60;;
28266;SDS011;15525;45.568;5.448;2022-08-21T00:36:32;2.47;;;1.75;;
28266;SDS011;15525;45.568;5.448;2022-08-21T00:38:58;2.95;;;1.70;;
28266;SDS011;15525;45.568;5.448;2022-08-21T00:41:24;2.65;;;1.52;;
28266;SDS011;15525;45.568;5.448;2022-08-21T00:43:50;3.15;;;1.75;;
28266;SDS011;15525;45.568;5.448;2022-08-21T00:46:16;3.40;;;1.65;;
28266;SDS011;15525;45.568;5.448;2022-08-21T00:48:42;2.60;;;1.67;;
28266;SDS011;15525;45.568;5.448;2022-08-21T00:51:12;3.70;;;1.70;;
28266;SDS011;15525;45.568;5.448;2022-08-21T00:53:43;2.20;;;1.60;;
28266;SDS011;15525;45.568;5.448;2022-08-21T00:56:11;4.00;;;1.63;;
28266;SDS011;15525;45.568;5.448;2022-08-21T00:58:38;1.65;;;1.55;;
28266;SDS011;15525;45.568;5.448;2022-08-21T01:01:07;1.50;;;1.40;;
28266;SDS011;15525;45.568;5.448;2022-08-21T01:03:33;5.03;;;1.58;;
28266;SDS011;15525;45.568;5.448;2022-08-21T01:06:00;3.97;;;1.80;;
28266;SDS011;15525;45.568;5.448;2022-08-21T01:08:29;3.33;;;1.80;;
28266;SDS011;15525;45.568;5.448;2022-08-21T01:10:55;4.78;;;1.88;;
28266;SDS011;15525;45.568;5.448;2022-08-21T01:13:21;3.28;;;1.70;;
28266;SDS011;15525;45.568;5.448;2022-08-21T01:15:49;2.30;;;1.73;;
28266;SDS011;15525;45.568;5.448;2022-08-21T01:18:17;4.90;;;1.60;;
28266;SDS011;15525;45.568;5.448;2022-08-21T01:20:50;4.45;;;1.88;;
28266;SDS011;15525;45.568;5.448;2022-08-21T01:23:23;5.38;;;1.80;;
28266;SDS011;15525;45.568;5.448;2022-08-21T01:25:48;4.78;;;1.95;;
28266;SDS011;15525;45.568;5.448;2022-08-21T01:28:14;4.22;;;1.90;;
28266;SDS011;15525;45.568;5.448;2022-08-21T01:30:40;2.20;;;1.83;;
28266;SDS011;15525;45.568;5.448;2022-08-21T01:33:08;2.08;;;1.80;;
28266;SDS011;15525;45.568;5.448;2022-08-21T01:35:33;4.28;;;1.88;;
28266;SDS011;15525;45.568;5.448;2022-08-21T01:37:59;3.50;;;1.60;;
28266;SDS011;15525;45.568;5.448;2022-08-21T01:40:25;3.55;;;1.60;;
28266;SDS011;15525;45.568;5.448;2022-08-21T01:42:50;2.97;;;1.70;;
28266;SDS011;15525;45.568;5.448;2022-08-21T01:45:16;2.17;;;1.80;;
28266;SDS011;15525;45.568;5.448;2022-08-21T01:47:42;3.72;;;1.88;;
28266;SDS011;15525;45.568;5.448;2022-08-21T01:50:10;2.10;;;1.73;;
28266;SDS011;15525;45.568;5.448;2022-08-21T01:52:43;2.47;;;1.60;;
28266;SDS011;15525;45.568;5.448;2022-08-21T01:55:09;3.45;;;1.90;;
28266;SDS011;15525;45.568;5.448;2022-08-21T01:57:35;3.60;;;1.83;;
28266;SDS011;15525;45.568;5.448;2022-08-21T02:00:03;4.57;;;1.75;;
28266;SDS011;15525;45.568;5.448;2022-08-21T02:02:33;2.88;;;1.75;;
28266;SDS011;15525;45.568;5.448;2022-08-21T02:04:58;4.47;;;1.70;;
28266;SDS011;15525;45.568;5.448;2022-08-21T02:07:24;2.72;;;1.63;;
28266;SDS011;15525;45.568;5.448;2022-08-21T02:09:49;3.72;;;1.60;;
28266;SDS011;15525;45.568;5.448;2022-08-21T02:12:15;5.70;;;1.90;;
28266;SDS011;15525;45.568;5.448;2022-08-21T02:14:40;5.93;;;1.75;;
28266;SDS011;15525;45.568;5.448;2022-08-21T02:17:06;6.13;;;2.40;;
28266;SDS011;15525;45.568;5.448;2022-08-21T02:19:31;3.65;;;1.90;;
28266;SDS011;15525;45.568;5.448;2022-08-21T02:21:56;1.80;;;1.58;;
28266;SDS011;15525;45.568;5.448;2022-08-21T02:24:22;2.10;;;1.80;;
28266;SDS011;15525;45.568;5.448;2022-08-21T02:26:47;4.40;;;2.00;;
28266;SDS011;15525;45.568;5.448;2022-08-21T02:29:13;4.38;;;1.70;;
28266;SDS011;15525;45.568;5.448;2022-08-21T02:31:39;3.60;;;1.63;;
28266;SDS011;15525;45.568;5.448;2022-08-21T02:34:04;3.25;;;1.90;;
28266;SDS011;15525;45.568;5.448;2022-08-21T02:36:29;3.92;;;2.17;;
28266;SDS011;15525;45.568;5.448;2022-08-21T02:38:55;4.55;;;1.70;;
28266;SDS011;15525;45.568;5.448;2022-08-21T02:41:21;2.28;;;2.03;;
28266;SDS011;15525;45.568;5.448;2022-08-21T02:43:47;4.35;;;2.10;;
28266;SDS011;15525;45.568;5.448;2022-08-21T02:46:14;8.23;;;1.98;;
28266;SDS011;15525;45.568;5.448;2022-08-21T02:48:40;3.20;;;2.00;;
28266;SDS011;15525;45.568;5.448;2022-08-21T02:51:07;3.95;;;2.17;;
28266;SDS011;15525;45.568;5.448;2022-08-21T02:53:35;5.35;;;1.75;;
28266;SDS011;15525;45.568;5.448;2022-08-21T02:56:02;3.38;;;1.80;;
28266;SDS011;15525;45.568;5.448;2022-08-21T02:58:31;2.42;;;2.00;;
28266;SDS011;15525;45.568;5.448;2022-08-21T03:01:01;6.40;;;1.90;;
28266;SDS011;15525;45.568;5.448;2022-08-21T03:03:27;4.35;;;1.75;;
28266;SDS011;15525;45.568;5.448;2022-08-21T03:05:53;2.28;;;1.67;;
28266;SDS011;15525;45.568;5.448;2022-08-21T03:08:19;4.53;;;1.90;;
28266;SDS011;15525;45.568;5.448;2022-08-21T03:10:46;4.97;;;1.95;;
28266;SDS011;15525;45.568;5.448;2022-08-21T03:13:14;7.13;;;1.90;;
28266;SDS011;15525;45.568;5.448;2022-08-21T03:15:40;4.38;;;1.67;;
28266;SDS011;15525;45.568;5.448;2022-08-21T03:18:06;3.10;;;1.95;;
28266;SDS011;15525;45.568;5.448;2022-08-21T03:20:33;2.83;;;1.85;;
28266;SDS011;15525;45.568;5.448;2022-08-21T03:23:00;4.63;;;2.13;;
28266;SDS011;15525;45.568;5.448;2022-08-21T03:25:28;3.38;;;1.85;;
28266;SDS011;15525;45.568;5.448;2022-08-21T03:27:57;4.65;;;1.98;;
28266;SDS011;15525;45.568;5.448;2022-08-21T03:30:22;2.38;;;2.00;;
28266;SDS011;15525;45.568;5.448;2022-08-21T03:32:48;6.43;;;2.25;;
28266;SDS011;15525;45.568;5.448;2022-08-21T03:35:14;3.47;;;2.00;;
28266;SDS011;15525;45.568;5.448;2022-08-21T03:37:40;5.30;;;2.22;;
28266;SDS011;15525;45.568;5.448;2022-08-21T03:40:06;2.22;;;1.80;;
28266;SDS011;15525;45.568;5.448;2022-08-21T03:42:33;3.80;;;2.10;;
28266;SDS011;15525;45.568;5.448;2022-08-21T03:44:59;3.78;;;1.80;;
28266;SDS011;15525;45.568;5.448;2022-08-21T03:47:24;4.45;;;1.83;;
28266;SDS011;15525;45.568;5.448;2022-08-21T03:49:50;2.58;;;1.90;;
28266;SDS011;15525;45.568;5.448;2022-08-21T03:52:16;3.65;;;1.77;;
28266;SDS011;15525;45.568;5.448;2022-08-21T03:54:42;4.45;;;1.92;;
28266;SDS011;15525;45.568;5.448;2022-08-21T03:57:08;5.50;;;1.85;;
28266;SDS011;15525;45.568;5.448;2022-08-21T03:59:34;2.97;;;2.03;;
28266;SDS011;15525;45.568;5.448;2022-08-21T04:02:02;2.53;;;1.70;;
28266;SDS011;15525;45.568;5.448;2022-08-21T04:04:29;6.95;;;2.00;;
28266;SDS011;15525;45.568;5.448;2022-08-21T04:06:55;5.55;;;2.20;;
28266;SDS011;15525;45.568;5.448;2022-08-21T04:09:22;4.00;;;1.98;;
28266;SDS011;15525;45.568;5.448;2022-08-21T04:11:48;2.78;;;1.90;;
28266;SDS011;15525;45.568;5.448;2022-08-21T04:14:14;3.42;;;1.98;;
28266;SDS011;15525;45.568;5.448;2022-08-21T04:16:40;5.57;;;2.00;;
28266;SDS011;15525;45.568;5.448;2022-08-21T04:19:07;3.55;;;1.83;;
28266;SDS011;15525;45.568;5.448;2022-08-21T04:21:33;4.13;;;2.20;;
28266;SDS011;15525;45.568;5.448;2022-08-21T04:23:59;2.42;;;1.95;;
28266;SDS011;15525;45.568;5.448;2022-08-21T04:26:24;4.57;;;1.80;;
28266;SDS011;15525;45.568;5.448;2022-08-21T04:28:51;4.80;;;2.00;;
28266;SDS011;15525;45.568;5.448;2022-08-21T04:31:17;4.55;;;2.00;;
28266;SDS011;15525;45.568;5.448;2022-08-21T04:33:42;4.07;;;2.00;;
28266;SDS011;15525;45.568;5.448;2022-08-21T04:36:09;6.30;;;2.25;;
28266;SDS011;15525;45.568;5.448;2022-08-21T04:38:34;4.47;;;2.05;;
28266;SDS011;15525;45.568;5.448;2022-08-21T04:40:59;5.38;;;2.00;;
28266;SDS011;15525;45.568;5.448;2022-08-21T04:43:25;4.18;;;2.25;;
28266;SDS011;15525;45.568;5.448;2022-08-21T04:45:51;3.90;;;1.95;;
28266;SDS011;15525;45.568;5.448;2022-08-21T04:48:18;5.65;;;2.00;;
28266;SDS011;15525;45.568;5.448;2022-08-21T04:51:19;2.33;;;1.90;;
28266;SDS011;15525;45.568;5.448;2022-08-21T04:53:43;4.40;;;2.22;;
28266;SDS011;15525;45.568;5.448;2022-08-21T04:56:18;4.60;;;2.20;;
28266;SDS011;15525;45.568;5.448;2022-08-21T04:58:45;3.90;;;2.25;;
28266;SDS011;15525;45.568;5.448;2022-08-21T05:01:14;4.40;;;2.22;;
28266;SDS011;15525;45.568;5.448;2022-08-21T05:03:43;4.43;;;2.15;;
28266;SDS011;15525;45.568;5.448;2022-08-21T05:06:10;3.90;;;2.22;;
28266;SDS011;15525;45.568;5.448;2022-08-21T05:08:38;4.25;;;2.17;;
28266;SDS011;15525;45.568;5.448;2022-08-21T05:11:05;3.70;;;2.15;;
28266;SDS011;15525;45.568;5.448;2022-08-21T05:13:31;5.47;;;2.08;;
28266;SDS011;15525;45.568;5.448;2022-08-21T05:15:57;5.18;;;2.30;;
28266;SDS011;15525;45.568;5.448;2022-08-21T05:18:23;5.38;;;2.40;;
28266;SDS011;15525;45.568;5.448;2022-08-21T05:20:49;5.40;;;2.45;;
28266;SDS011;15525;45.568;5.448;2022-08-21T05:23:15;6.85;;;2.70;;
28266;SDS011;15525;45.568;5.448;2022-08-21T05:25:41;3.90;;;2.40;;
28266;SDS011;15525;45.568;5.448;2022-08-21T05:28:08;5.57;;;3.10;;
28266;SDS011;15525;45.568;5.448;2022-08-21T05:30:35;5.32;;;2.53;;
28266;SDS011;15525;45.568;5.448;2022-08-21T05:33:02;4.72;;;2.58;;
28266;SDS011;15525;45.568;5.448;2022-08-21T05:35:29;4.25;;;2.50;;
28266;SDS011;15525;45.568;5.448;2022-08-21T05:37:55;8.57;;;2.80;;
28266;SDS011;15525;45.568;5.448;2022-08-21T05:40:22;3.05;;;2.30;;
28266;SDS011;15525;45.568;5.448;2022-08-21T05:42:48;3.42;;;2.70;;
28266;SDS011;15525;45.568;5.448;2022-08-21T05:45:15;5.75;;;2.72;;
28266;SDS011;15525;45.568;5.448;2022-08-21T05:47:41;5.78;;;2.70;;
28266;SDS011;15525;45.568;5.448;2022-08-21T05:50:07;5.38;;;2.80;;
28266;SDS011;15525;45.568;5.448;2022-08-21T05:52:32;4.10;;;2.55;;
28266;SDS011;15525;45.568;5.448;2022-08-21T05:54:58;3.05;;;2.70;;
28266;SDS011;15525;45.568;5.448;2022-08-21T05:57:23;5.63;;;2.90;;
28266;SDS011;15525;45.568;5.448;2022-08-21T05:59:50;3.45;;;2.40;;
28266;SDS011;15525;45.568;5.448;2022-08-21T06:02:17;5.30;;;2.80;;
28266;SDS011;15525;45.568;5.448;2022-08-21T06:04:43;4.78;;;2.40;;
28266;SDS011;15525;45.568;5.448;2022-08-21T06:07:09;3.92;;;2.72;;
28266;SDS011;15525;45.568;5.448;2022-08-21T06:09:34;4.22;;;2.45;;
28266;SDS011;15525;45.568;5.448;2022-08-21T06:12:11;5.32;;;2.60;;
28266;SDS011;15525;45.568;5.448;2022-08-21T06:14:38;4.10;;;2.72;;
28266;SDS011;15525;45.568;5.448;2022-08-21T06:17:05;6.93;;;2.65;;
28266;SDS011;15525;45.568;5.448;2022-08-21T06:19:35;6.25;;;2.50;;
28266;SDS011;15525;45.568;5.448;2022-08-21T06:22:01;10.30;;;2.67;;
28266;SDS011;15525;45.568;5.448;2022-08-21T06:24:27;3.47;;;2.45;;
28266;SDS011;15525;45.568;5.448;2022-08-21T06:26:52;6.90;;;2.50;;
28266;SDS011;15525;45.568;5.448;2022-08-21T06:29:18;2.95;;;2.45;;
28266;SDS011;15525;45.568;5.448;2022-08-21T06:31:45;3.38;;;2.42;;
28266;SDS011;15525;45.568;5.448;2022-08-21T06:34:11;4.55;;;2.40;;
28266;SDS011;15525;45.568;5.448;2022-08-21T06:36:38;8.45;;;2.70;;
28266;SDS011;15525;45.568;5.448;2022-08-21T06:39:03;7.72;;;3.10;;
28266;SDS011;15525;45.568;5.448;2022-08-21T06:41:29;4.63;;;2.90;;
28266;SDS011;15525;45.568;5.448;2022-08-21T06:43:55;5.60;;;3.17;;
28266;SDS011;15525;45.568;5.448;2022-08-21T06:46:22;7.63;;;2.78;;
28266;SDS011;15525;45.568;5.448;2022-08-21T06:48:49;7.00;;;3.40;;
28266;SDS011;15525;45.568;5.448;2022-08-21T06:51:14;7.00;;;3.60;;
28266;SDS011;15525;45.568;5.448;2022-08-21T06:53:40;6.05;;;2.78;;
28266;SDS011;15525;45.568;5.448;2022-08-21T06:56:05;5.10;;;2.60;;
28266;SDS011;15525;45.568;5.448;2022-08-21T06:58:31;6.50;;;2.45;;
28266;SDS011;15525;45.568;5.448;2022-08-21T07:00:57;2.83;;;2.42;;
28266;SDS011;15525;45.568;5.448;2022-08-21T07:03:27;5.25;;;3.28;;
28266;SDS011;15525;45.568;5.448;2022-08-21T07:05:55;8.32;;;2.53;;
28266;SDS011;15525;45.568;5.448;2022-08-21T07:08:21;5.22;;;2.92;;
28266;SDS011;15525;45.568;5.448;2022-08-21T07:10:47;8.25;;;2.55;;
28266;SDS011;15525;45.568;5.448;2022-08-21T07:13:14;6.78;;;2.53;;
28266;SDS011;15525;45.568;5.448;2022-08-21T07:15:40;7.47;;;3.53;;
28266;SDS011;15525;45.568;5.448;2022-08-21T07:18:05;5.45;;;2.70;;
28266;SDS011;15525;45.568;5.448;2022-08-21T07:20:32;6.82;;;2.50;;
28266;SDS011;15525;45.568;5.448;2022-08-21T07:22:59;4.95;;;2.70;;
28266;SDS011;15525;45.568;5.448;2022-08-21T07:25:28;6.70;;;3.10;;
28266;SDS011;15525;45.568;5.448;2022-08-21T07:27:53;9.15;;;2.60;;
28266;SDS011;15525;45.568;5.448;2022-08-21T07:30:21;4.65;;;2.65;;
28266;SDS011;15525;45.568;5.448;2022-08-21T07:32:47;4.30;;;2.58;;
28266;SDS011;15525;45.568;5.448;2022-08-21T07:35:16;5.60;;;2.70;;
28266;SDS011;15525;45.568;5.448;2022-08-21T07:37:43;5.60;;;2.53;;
28266;SDS011;15525;45.568;5.448;2022-08-21T07:40:08;7.53;;;2.58;;
28266;SDS011;15525;45.568;5.448;2022-08-21T07:42:34;5.95;;;2.75;;
28266;SDS011;15525;45.568;5.448;2022-08-21T07:45:05;4.95;;;2.42;;
28266;SDS011;15525;45.568;5.448;2022-08-21T07:47:31;6.82;;;2.60;;
28266;SDS011;15525;45.568;5.448;2022-08-21T07:49:56;4.32;;;2.42;;
28266;SDS011;15525;45.568;5.448;2022-08-21T07:52:22;5.07;;;2.63;;
28266;SDS011;15525;45.568;5.448;2022-08-21T07:54:47;6.50;;;2.67;;
28266;SDS011;15525;45.568;5.448;2022-08-21T07:57:13;2.83;;;2.38;;
28266;SDS011;15525;45.568;5.448;2022-08-21T07:59:38;4.40;;;2.58;;
28266;SDS011;15525;45.568;5.448;2022-08-21T08:02:03;6.75;;;2.90;;
28266;SDS011;15525;45.568;5.448;2022-08-21T08:04:31;3.60;;;2.33;;
28266;SDS011;15525;45.568;5.448;2022-08-21T08:06:57;5.80;;;2.67;;
28266;SDS011;15525;45.568;5.448;2022-08-21T08:09:23;4.13;;;2.63;;
28266;SDS011;15525;45.568;5.448;2022-08-21T08:11:48;4.60;;;2.53;;
28266;SDS011;15525;45.568;5.448;2022-08-21T08:14:14;4.70;;;2.63;;
28266;SDS011;15525;45.568;5.448;2022-08-21T08:16:40;5.50;;;2.58;;
28266;SDS011;15525;45.568;5.448;2022-08-21T08:19:06;4.40;;;2.50;;
28266;SDS011;15525;45.568;5.448;2022-08-21T08:21:31;4.40;;;2.50;;
28266;SDS011;15525;45.568;5.448;2022-08-21T08:23:58;5.05;;;2.40;;
28266;SDS011;15525;45.568;5.448;2022-08-21T08:26:24;5.03;;;2.50;;
28266;SDS011;15525;45.568;5.448;2022-08-21T08:28:50;8.75;;;3.20;;
28266;SDS011;15525;45.568;5.448;2022-08-21T08:31:15;4.65;;;2.20;;
28266;SDS011;15525;45.568;5.448;2022-08-21T08:33:40;4.47;;;2.58;;
28266;SDS011;15525;45.568;5.448;2022-08-21T08:36:11;4.43;;;2.40;;
28266;SDS011;15525;45.568;5.448;2022-08-21T08:38:39;8.07;;;2.75;;
28266;SDS011;15525;45.568;5.448;2022-08-21T08:41:09;5.55;;;2.50;;
28266;SDS011;15525;45.568;5.448;2022-08-21T08:43:38;4.30;;;2.60;;
28266;SDS011;15525;45.568;5.448;2022-08-21T08:46:10;4.78;;;2.40;;
28266;SDS011;15525;45.568;5.448;2022-08-21T08:51:37;4.63;;;2.65;;
28266;SDS011;15525;45.568;5.448;2022-08-21T08:54:02;3.50;;;2.55;;
28266;SDS011;15525;45.568;5.448;2022-08-21T08:56:33;2.83;;;2.10;;
28266;SDS011;15525;45.568;5.448;2022-08-21T08:59:11;3.83;;;2.60;;
28266;SDS011;15525;45.568;5.448;2022-08-21T09:01:44;5.28;;;2.50;;
28266;SDS011;15525;45.568;5.448;2022-08-21T09:04:10;3.85;;;2.50;;
28266;SDS011;15525;45.568;5.448;2022-08-21T09:09:09;6.28;;;2.78;;
28266;SDS011;15525;45.568;5.448;2022-08-21T09:11:59;5.13;;;2.45;;
28266;SDS011;15525;45.568;5.448;2022-08-21T09:25:41;5.03;;;2.47;;
28266;SDS011;15525;45.568;5.448;2022-08-21T09:28:32;3.20;;;2.63;;
28266;SDS011;15525;45.568;5.448;2022-08-21T09:30:59;5.95;;;2.80;;
28266;SDS011;15525;45.568;5.448;2022-08-21T09:33:28;3.05;;;2.78;;
28266;SDS011;15525;45.568;5.448;2022-08-21T09:35:54;2.65;;;2.15;;
28266;SDS011;15525;45.568;5.448;2022-08-21T09:38:25;2.92;;;2.20;;
28266;SDS011;15525;45.568;5.448;2022-08-21T09:41:00;2.27;;;1.90;;
28266;SDS011;15525;45.568;5.448;2022-08-21T09:43:31;5.32;;;2.03;;
28266;SDS011;15525;45.568;5.448;2022-08-21T09:49:00;3.40;;;2.45;;
28266;SDS011;15525;45.568;5.448;2022-08-21T09:51:29;3.22;;;2.25;;
28266;SDS011;15525;45.568;5.448;2022-08-21T09:56:33;2.42;;;2.00;;
28266;SDS011;15525;45.568;5.448;2022-08-21T10:04:21;3.10;;;2.15;;
28266;SDS011;15525;45.568;5.448;2022-08-21T10:06:52;4.78;;;2.03;;
28266;SDS011;15525;45.568;5.448;2022-08-21T10:09:18;3.55;;;2.20;;
28266;SDS011;15525;45.568;5.448;2022-08-21T10:12:30;4.15;;;2.10;;
28266;SDS011;15525;45.568;5.448;2022-08-21T10:17:02;2.60;;;1.90;;
28266;SDS011;15525;45.568;5.448;2022-08-21T10:19:48;3.90;;;2.10;;
28266;SDS011;15525;45.568;5.448;2022-08-21T10:25:01;4.72;;;1.80;;
28266;SDS011;15525;45.568;5.448;2022-08-21T10:27:34;2.70;;;1.80;;
28266;SDS011;15525;45.568;5.448;2022-08-21T10:30:09;2.80;;;1.60;;
28266;SDS011;15525;45.568;5.448;2022-08-21T10:32:49;4.15;;;1.83;;
28266;SDS011;15525;45.568;5.448;2022-08-21T10:35:40;3.63;;;1.63;;
28266;SDS011;15525;45.568;5.448;2022-08-21T10:57:50;2.40;;;1.92;;
28266;SDS011;15525;45.568;5.448;2022-08-21T11:00:23;1.83;;;1.67;;
28266;SDS011;15525;45.568;5.448;2022-08-21T11:03:06;4.43;;;2.30;;
28266;SDS011;15525;45.568;5.448;2022-08-21T11:05:44;6.95;;;1.88;;
28266;SDS011;15525;45.568;5.448;2022-08-21T11:08:17;2.78;;;1.92;;
28266;SDS011;15525;45.568;5.448;2022-08-21T11:10:57;2.05;;;1.60;;
28266;SDS011;15525;45.568;5.448;2022-08-21T11:19:48;2.90;;;1.95;;
28266;SDS011;15525;45.568;5.448;2022-08-21T11:27:23;4.25;;;2.35;;
28266;SDS011;15525;45.568;5.448;2022-08-21T11:40:46;1.77;;;1.60;;
28266;SDS011;15525;45.568;5.448;2022-08-21T11:51:49;3.50;;;1.90;;
28266;SDS011;15525;45.568;5.448;2022-08-21T12:00:08;4.15;;;1.73;;
28266;SDS011;15525;45.568;5.448;2022-08-21T12:02:42;2.40;;;1.95;;
28266;SDS011;15525;45.568;5.448;2022-08-21T12:05:29;3.70;;;1.73;;
28266;SDS011;15525;45.568;5.448;2022-08-21T12:10:34;2.00;;;1.80;;
28266;SDS011;15525;45.568;5.448;2022-08-21T12:13:11;1.80;;;1.60;;
28266;SDS011;15525;45.568;5.448;2022-08-21T12:15:47;4.03;;;1.77;;
28266;SDS011;15525;45.568;5.448;2022-08-21T12:21:20;3.00;;;1.60;;
28266;SDS011;15525;45.568;5.448;2022-08-21T12:23:47;3.25;;;1.63;;
28266;SDS011;15525;45.568;5.448;2022-08-21T12:27:17;2.20;;;1.80;;
28266;SDS011;15525;45.568;5.448;2022-08-21T12:29:38;2.92;;;1.75;;
28266;SDS011;15525;45.568;5.448;2022-08-21T12:34:39;2.95;;;2.03;;
28266;SDS011;15525;45.568;5.448;2022-08-21T12:37:20;3.50;;;1.85;;
28266;SDS011;15525;45.568;5.448;2022-08-21T12:39:51;2.80;;;1.85;;
28266;SDS011;15525;45.568;5.448;2022-08-21T12:42:31;4.25;;;1.67;;
28266;SDS011;15525;45.568;5.448;2022-08-21T12:45:04;2.97;;;1.88;;
28266;SDS011;15525;45.568;5.448;2022-08-21T12:50:37;2.75;;;1.70;;
28266;SDS011;15525;45.568;5.448;2022-08-21T12:56:11;3.78;;;1.67;;
28266;SDS011;15525;45.568;5.448;2022-08-21T12:58:46;4.85;;;1.85;;
28266;SDS011;15525;45.568;5.448;2022-08-21T13:01:34;4.05;;;2.20;;
28266;SDS011;15525;45.568;5.448;2022-08-21T13:04:02;4.07;;;1.98;;
28266;SDS011;15525;45.568;5.448;2022-08-21T13:06:36;3.85;;;2.10;;
28266;SDS011;15525;45.568;5.448;2022-08-21T13:09:05;4.72;;;1.80;;
28266;SDS011;15525;45.568;5.448;2022-08-21T13:11:34;6.22;;;2.00;;
28266;SDS011;15525;45.568;5.448;2022-08-21T13:14:00;5.30;;;1.67;;
28266;SDS011;15525;45.568;5.448;2022-08-21T13:16:28;4.53;;;1.80;;
28266;SDS011;15525;45.568;5.448;2022-08-21T13:19:06;3.03;;;1.73;;
28266;SDS011;15525;45.568;5.448;2022-08-21T13:21:40;2.17;;;1.70;;
28266;SDS011;15525;45.568;5.448;2022-08-21T13:24:16;6.22;;;2.10;;
28266;SDS011;15525;45.568;5.448;2022-08-21T13:26:44;3.67;;;2.53;;
28266;SDS011;15525;45.568;5.448;2022-08-21T13:29:11;2.35;;;1.58;;
28266;SDS011;15525;45.568;5.448;2022-08-21T13:31:39;2.45;;;2.00;;
28266;SDS011;15525;45.568;5.448;2022-08-21T13:34:07;6.28;;;1.85;;
28266;SDS011;15525;45.568;5.448;2022-08-21T13:36:36;2.80;;;2.00;;
28266;SDS011;15525;45.568;5.448;2022-08-21T13:39:10;3.45;;;1.85;;
28266;SDS011;15525;45.568;5.448;2022-08-21T13:41:38;4.53;;;1.92;;
28266;SDS011;15525;45.568;5.448;2022-08-21T13:44:14;4.15;;;2.05;;
28266;SDS011;15525;45.568;5.448;2022-08-21T13:46:51;4.30;;;1.75;;
28266;SDS011;15525;45.568;5.448;2022-08-21T13:49:19;3.33;;;2.08;;
28266;SDS011;15525;45.568;5.448;2022-08-21T13:51:48;3.42;;;1.80;;
28266;SDS011;15525;45.568;5.448;2022-08-21T13:56:58;6.07;;;1.90;;
28266;SDS011;15525;45.568;5.448;2022-08-21T13:59:25;11.00;;;1.83;;
28266;SDS011;15525;45.568;5.448;2022-08-21T14:01:54;3.03;;;2.03;;
28266;SDS011;15525;45.568;5.448;2022-08-21T14:04:29;3.83;;;1.88;;
28266;SDS011;15525;45.568;5.448;2022-08-21T14:06:59;4.03;;;1.90;;
28266;SDS011;15525;45.568;5.448;2022-08-21T14:09:30;5.18;;;1.70;;
28266;SDS011;15525;45.568;5.448;2022-08-21T14:11:59;3.70;;;1.90;;
28266;SDS011;15525;45.568;5.448;2022-08-21T14:14:37;5.32;;;2.35;;
28266;SDS011;15525;45.568;5.448;2022-08-21T14:17:06;2.97;;;1.60;;
28266;SDS011;15525;45.568;5.448;2022-08-21T14:19:40;3.47;;;2.00;;
28266;SDS011;15525;45.568;5.448;2022-08-21T14:27:51;2.92;;;1.67;;
28266;SDS011;15525;45.568;5.448;2022-08-21T14:30:20;2.38;;;1.90;;
28266;SDS011;15525;45.568;5.448;2022-08-21T14:32:52;5.20;;;2.08;;
28266;SDS011;15525;45.568;5.448;2022-08-21T14:35:18;4.00;;;1.90;;
28266;SDS011;15525;45.568;5.448;2022-08-21T14:37:46;2.78;;;1.90;;
28266;SDS011;15525;45.568;5.448;2022-08-21T14:40:12;2.45;;;1.80;;
28266;SDS011;15525;45.568;5.448;2022-08-21T14:42:37;6.00;;;2.13;;
28266;SDS011;15525;45.568;5.448;2022-08-21T14:45:16;2.95;;;1.67;;
28266;SDS011;15525;45.568;5.448;2022-08-21T14:47:48;3.28;;;1.67;;
28266;SDS011;15525;45.568;5.448;2022-08-21T14:50:14;2.65;;;1.75;;
28266;SDS011;15525;45.568;5.448;2022-08-21T14:52:40;2.50;;;1.65;;
28266;SDS011;15525;45.568;5.448;2022-08-21T14:55:07;3.28;;;1.70;;
28266;SDS011;15525;45.568;5.448;2022-08-21T14:57:35;3.08;;;1.90;;
28266;SDS011;15525;45.568;5.448;2022-08-21T15:00:01;4.50;;;1.90;;
28266;SDS011;15525;45.568;5.448;2022-08-21T15:02:29;2.40;;;1.60;;
28266;SDS011;15525;45.568;5.448;2022-08-21T15:04:54;5.95;;;1.65;;
28266;SDS011;15525;45.568;5.448;2022-08-21T15:07:20;2.50;;;1.70;;
28266;SDS011;15525;45.568;5.448;2022-08-21T15:09:45;2.25;;;1.58;;
28266;SDS011;15525;45.568;5.448;2022-08-21T15:12:11;4.13;;;1.80;;
28266;SDS011;15525;45.568;5.448;2022-08-21T15:14:38;3.75;;;1.77;;
28266;SDS011;15525;45.568;5.448;2022-08-21T15:17:08;3.28;;;2.00;;
28266;SDS011;15525;45.568;5.448;2022-08-21T15:19:36;3.28;;;2.10;;
28266;SDS011;15525;45.568;5.448;2022-08-21T15:22:02;2.45;;;1.80;;
28266;SDS011;15525;45.568;5.448;2022-08-21T15:24:28;3.92;;;1.85;;
28266;SDS011;15525;45.568;5.448;2022-08-21T15:26:54;4.20;;;2.10;;
28266;SDS011;15525;45.568;5.448;2022-08-21T15:29:21;3.05;;;2.00;;
28266;SDS011;15525;45.568;5.448;2022-08-21T15:31:51;6.55;;;2.30;;
28266;SDS011;15525;45.568;5.448;2022-08-21T15:34:26;4.07;;;2.20;;
28266;SDS011;15525;45.568;5.448;2022-08-21T15:36:53;4.82;;;2.50;;
28266;SDS011;15525;45.568;5.448;2022-08-21T15:39:19;4.93;;;2.63;;
28266;SDS011;15525;45.568;5.448;2022-08-21T15:41:45;3.58;;;2.40;;
28266;SDS011;15525;45.568;5.448;2022-08-21T15:44:11;3.22;;;2.35;;
28266;SDS011;15525;45.568;5.448;2022-08-21T15:46:38;5.32;;;2.25;;
28266;SDS011;15525;45.568;5.448;2022-08-21T15:49:04;6.32;;;2.63;;
28266;SDS011;15525;45.568;5.448;2022-08-21T15:51:32;4.32;;;2.30;;
28266;SDS011;15525;45.568;5.448;2022-08-21T15:53:58;2.85;;;2.38;;
28266;SDS011;15525;45.568;5.448;2022-08-21T15:56:25;3.88;;;2.20;;
28266;SDS011;15525;45.568;5.448;2022-08-21T15:59:02;4.55;;;2.50;;
28266;SDS011;15525;45.568;5.448;2022-08-21T16:01:33;3.40;;;2.20;;
28266;SDS011;15525;45.568;5.448;2022-08-21T16:04:00;3.67;;;2.50;;
28266;SDS011;15525;45.568;5.448;2022-08-21T16:06:27;4.80;;;2.50;;
28266;SDS011;15525;45.568;5.448;2022-08-21T16:08:52;4.43;;;2.40;;
28266;SDS011;15525;45.568;5.448;2022-08-21T16:11:18;6.32;;;2.45;;
28266;SDS011;15525;45.568;5.448;2022-08-21T16:13:44;3.78;;;2.20;;
28266;SDS011;15525;45.568;5.448;2022-08-21T16:16:12;5.45;;;2.65;;
28266;SDS011;15525;45.568;5.448;2022-08-21T16:18:44;5.90;;;2.60;;
28266;SDS011;15525;45.568;5.448;2022-08-21T16:21:10;5.03;;;2.70;;
28266;SDS011;15525;45.568;5.448;2022-08-21T16:23:35;3.78;;;2.80;;
28266;SDS011;15525;45.568;5.448;2022-08-21T16:26:03;6.10;;;3.28;;
28266;SDS011;15525;45.568;5.448;2022-08-21T16:28:30;7.05;;;2.97;;
28266;SDS011;15525;45.568;5.448;2022-08-21T16:30:58;5.82;;;2.83;;
28266;SDS011;15525;45.568;5.448;2022-08-21T16:33:26;4.78;;;2.47;;
28266;SDS011;15525;45.568;5.448;2022-08-21T16:36:01;4.45;;;2.95;;
28266;SDS011;15525;45.568;5.448;2022-08-21T16:38:28;6.38;;;2.80;;
28266;SDS011;15525;45.568;5.448;2022-08-21T16:40:56;4.82;;;2.80;;
28266;SDS011;15525;45.568;5.448;2022-08-21T16:43:25;5.57;;;3.13;;
28266;SDS011;15525;45.568;5.448;2022-08-21T16:45:53;5.88;;;2.70;;
28266;SDS011;15525;45.568;5.448;2022-08-21T16:48:20;6.03;;;3.20;;